ICE60G BIRK-BIEG
Flight info
| Callsign | ICE60G |
|---|---|
| Flight time | 0h 47m |
| Altitude | 23000 |
| Route | BRUSI |
| Aircraft | DH8D/M-SDE2E3FGRY/H |
Departure
| Time | 2026-05-08 15:07 |
|---|---|
| Airport | Reykjavík Domestic Airport (BIRK) |
Arrival
| Time | 2026-05-08 15:54 |
|---|---|
| Airport | Egilsstaðir Airport (BIEG) |
| Time | Latitude | Longitude | Altitude | Speed | Heading |
|---|---|---|---|---|---|
| 2026-05-08 14:34 | 64.13158 | -21.94591 | 33 ft | 0 kts | 84° |
| 2026-05-08 14:59 | 64.13158 | -21.94590 | 33 ft | 0 kts | 84° |
| 2026-05-08 15:02 | 64.13160 | -21.94546 | 32 ft | 5 kts | 96° |
| 2026-05-08 15:02 | 64.13147 | -21.94455 | 33 ft | 6 kts | 108° |
| 2026-05-08 15:03 | 64.13133 | -21.94318 | 33 ft | 9 kts | 91° |
| 2026-05-08 15:03 | 64.13142 | -21.94112 | 34 ft | 14 kts | 83° |
| 2026-05-08 15:03 | 64.13153 | -21.93894 | 35 ft | 14 kts | 84° |
| 2026-05-08 15:03 | 64.13119 | -21.93696 | 35 ft | 13 kts | 125° |
| 2026-05-08 15:04 | 64.13058 | -21.93561 | 35 ft | 11 kts | 169° |
| 2026-05-08 15:04 | 64.12983 | -21.93564 | 35 ft | 10 kts | 182° |
| 2026-05-08 15:04 | 64.12918 | -21.93525 | 34 ft | 9 kts | 139° |
| 2026-05-08 15:04 | 64.12852 | -21.93490 | 34 ft | 11 kts | 178° |
| 2026-05-08 15:05 | 64.12791 | -21.93393 | 34 ft | 11 kts | 114° |
| 2026-05-08 15:05 | 64.12756 | -21.93227 | 34 ft | 11 kts | 116° |
| 2026-05-08 15:05 | 64.12734 | -21.93062 | 33 ft | 9 kts | 156° |
| 2026-05-08 15:05 | 64.12736 | -21.93134 | 33 ft | 5 kts | 296° |
| 2026-05-08 15:06 | 64.12762 | -21.93258 | 34 ft | 14 kts | 298° |
| 2026-05-08 15:06 | 64.12808 | -21.93464 | 34 ft | 14 kts | 294° |
| 2026-05-08 15:06 | 64.12976 | -21.94259 | 34 ft | 99 kts | 296° |
| 2026-05-08 15:06 | 64.13379 | -21.96103 | 114 ft | 148 kts | 295° |
| 2026-05-08 15:07 | 64.13988 | -21.98117 | 453 ft | 170 kts | 327° |
| 2026-05-08 15:07 | 64.15151 | -21.98271 | 1025 ft | 181 kts | 23° |
| 2026-05-08 15:07 | 64.15981 | -21.96127 | 1749 ft | 189 kts | 59° |
| 2026-05-08 15:07 | 64.16563 | -21.93393 | 2375 ft | 202 kts | 60° |
| 2026-05-08 15:08 | 64.17211 | -21.90237 | 2579 ft | 231 kts | 62° |
| 2026-05-08 15:08 | 64.17651 | -21.87956 | 2942 ft | 238 kts | 63° |
| 2026-05-08 15:08 | 64.18532 | -21.83237 | 3778 ft | 245 kts | 63° |
| 2026-05-08 15:08 | 64.19185 | -21.79633 | 4456 ft | 247 kts | 63° |
| 2026-05-08 15:09 | 64.19830 | -21.76023 | 5105 ft | 250 kts | 63° |
| 2026-05-08 15:09 | 64.20489 | -21.72283 | 5775 ft | 254 kts | 63° |
| 2026-05-08 15:09 | 64.21140 | -21.68561 | 6447 ft | 256 kts | 63° |
| 2026-05-08 15:09 | 64.21791 | -21.64808 | 7114 ft | 258 kts | 63° |
| 2026-05-08 15:10 | 64.22452 | -21.60977 | 7773 ft | 261 kts | 63° |
| 2026-05-08 15:10 | 64.23116 | -21.57112 | 8433 ft | 263 kts | 63° |
| 2026-05-08 15:10 | 64.23791 | -21.53166 | 9086 ft | 267 kts | 63° |
| 2026-05-08 15:10 | 64.24464 | -21.49218 | 9719 ft | 270 kts | 63° |
| 2026-05-08 15:11 | 64.25141 | -21.45222 | 10360 ft | 272 kts | 63° |
| 2026-05-08 15:11 | 64.25836 | -21.41119 | 11004 ft | 274 kts | 63° |
| 2026-05-08 15:11 | 64.26517 | -21.37084 | 11619 ft | 278 kts | 62° |
| 2026-05-08 15:11 | 64.27219 | -21.32914 | 12285 ft | 278 kts | 63° |
| 2026-05-08 15:12 | 64.27921 | -21.28738 | 12883 ft | 281 kts | 62° |
| 2026-05-08 15:12 | 64.28619 | -21.24577 | 13467 ft | 284 kts | 62° |
| 2026-05-08 15:12 | 64.29329 | -21.20319 | 14093 ft | 286 kts | 62° |
| 2026-05-08 15:12 | 64.30034 | -21.16087 | 14747 ft | 286 kts | 61° |
| 2026-05-08 15:13 | 64.30753 | -21.11762 | 15350 ft | 288 kts | 60° |
| 2026-05-08 15:13 | 64.31467 | -21.07470 | 15829 ft | 293 kts | 61° |
| 2026-05-08 15:13 | 64.32195 | -21.03065 | 16415 ft | 296 kts | 60° |
| 2026-05-08 15:13 | 64.32927 | -20.98643 | 16959 ft | 299 kts | 60° |
| 2026-05-08 15:14 | 64.33661 | -20.94187 | 17570 ft | 299 kts | 59° |
| 2026-05-08 15:14 | 64.34403 | -20.89674 | 18112 ft | 302 kts | 59° |
| 2026-05-08 15:14 | 64.35149 | -20.85132 | 18609 ft | 306 kts | 59° |
| 2026-05-08 15:14 | 64.35899 | -20.80533 | 19135 ft | 310 kts | 58° |
| 2026-05-08 15:15 | 64.36652 | -20.75911 | 19773 ft | 309 kts | 58° |
| 2026-05-08 15:15 | 64.37420 | -20.71215 | 20186 ft | 315 kts | 59° |
| 2026-05-08 15:15 | 64.38174 | -20.66543 | 20800 ft | 315 kts | 58° |
| 2026-05-08 15:15 | 64.38943 | -20.61802 | 21280 ft | 319 kts | 58° |
| 2026-05-08 15:16 | 64.39712 | -20.57034 | 21835 ft | 320 kts | 58° |
| 2026-05-08 15:16 | 64.40485 | -20.52221 | 22443 ft | 319 kts | 58° |
| 2026-05-08 15:16 | 64.41276 | -20.47336 | 22661 ft | 330 kts | 58° |
| 2026-05-08 15:16 | 64.42075 | -20.42343 | 23081 ft | 335 kts | 58° |
| 2026-05-08 15:17 | 64.42900 | -20.37226 | 23183 ft | 342 kts | 58° |
| 2026-05-08 15:17 | 64.43714 | -20.32081 | 23185 ft | 337 kts | 59° |
| 2026-05-08 15:17 | 64.44512 | -20.27013 | 23184 ft | 334 kts | 59° |
| 2026-05-08 15:17 | 64.45303 | -20.21998 | 23171 ft | 331 kts | 59° |
| 2026-05-08 15:18 | 64.46088 | -20.17019 | 23160 ft | 330 kts | 59° |
| 2026-05-08 15:18 | 64.46872 | -20.12033 | 23162 ft | 328 kts | 59° |
| 2026-05-08 15:18 | 64.47643 | -20.07120 | 23174 ft | 326 kts | 59° |
| 2026-05-08 15:18 | 64.48417 | -20.02182 | 23173 ft | 326 kts | 59° |
| 2026-05-08 15:19 | 64.49188 | -19.97257 | 23184 ft | 328 kts | 59° |
| 2026-05-08 15:19 | 64.49971 | -19.92244 | 23180 ft | 330 kts | 59° |
| 2026-05-08 15:19 | 64.50749 | -19.87239 | 23194 ft | 331 kts | 59° |
| 2026-05-08 15:19 | 64.51534 | -19.82181 | 23197 ft | 333 kts | 59° |
| 2026-05-08 15:20 | 64.52312 | -19.77152 | 23196 ft | 333 kts | 59° |
| 2026-05-08 15:20 | 64.53088 | -19.72115 | 23195 ft | 334 kts | 59° |
| 2026-05-08 15:20 | 64.53881 | -19.66960 | 23187 ft | 335 kts | 59° |
| 2026-05-08 15:20 | 64.54662 | -19.61860 | 23175 ft | 336 kts | 59° |
| 2026-05-08 15:21 | 64.55444 | -19.56751 | 23170 ft | 336 kts | 59° |
| 2026-05-08 15:21 | 64.56233 | -19.51569 | 23160 ft | 337 kts | 59° |
| 2026-05-08 15:21 | 64.57008 | -19.46464 | 23160 ft | 334 kts | 59° |
| 2026-05-08 15:21 | 64.57768 | -19.41436 | 23164 ft | 333 kts | 59° |
| 2026-05-08 15:22 | 64.58540 | -19.36329 | 23163 ft | 331 kts | 59° |
| 2026-05-08 15:22 | 64.59296 | -19.31301 | 23156 ft | 330 kts | 60° |
| 2026-05-08 15:22 | 64.60048 | -19.26288 | 23156 ft | 329 kts | 60° |
| 2026-05-08 15:22 | 64.60798 | -19.21281 | 23150 ft | 328 kts | 60° |
| 2026-05-08 15:23 | 64.61548 | -19.16264 | 23131 ft | 328 kts | 60° |
| 2026-05-08 15:23 | 64.62294 | -19.11256 | 23124 ft | 328 kts | 60° |
| 2026-05-08 15:23 | 64.63036 | -19.06269 | 23110 ft | 329 kts | 60° |
| 2026-05-08 15:23 | 64.63783 | -19.01232 | 23081 ft | 329 kts | 60° |
| 2026-05-08 15:24 | 64.64521 | -18.96234 | 23063 ft | 329 kts | 60° |
| 2026-05-08 15:24 | 64.65265 | -18.91185 | 23065 ft | 328 kts | 60° |
| 2026-05-08 15:24 | 64.66003 | -18.86161 | 23060 ft | 327 kts | 60° |
| 2026-05-08 15:24 | 64.66730 | -18.81201 | 23064 ft | 327 kts | 60° |
| 2026-05-08 15:25 | 64.67462 | -18.76184 | 23063 ft | 327 kts | 60° |
| 2026-05-08 15:25 | 64.68193 | -18.71168 | 23070 ft | 326 kts | 60° |
| 2026-05-08 15:25 | 64.68922 | -18.66157 | 23076 ft | 326 kts | 60° |
| 2026-05-08 15:25 | 64.69648 | -18.61142 | 23084 ft | 326 kts | 60° |
| 2026-05-08 15:26 | 64.70371 | -18.56129 | 23097 ft | 325 kts | 60° |
| 2026-05-08 15:26 | 64.71085 | -18.51173 | 23113 ft | 325 kts | 60° |
| 2026-05-08 15:26 | 64.71805 | -18.46157 | 23130 ft | 324 kts | 60° |
| 2026-05-08 15:26 | 64.72519 | -18.41174 | 23136 ft | 324 kts | 60° |
| 2026-05-08 15:27 | 64.73225 | -18.36233 | 23129 ft | 324 kts | 60° |
| 2026-05-08 15:27 | 64.73941 | -18.31204 | 23125 ft | 324 kts | 61° |
| 2026-05-08 15:27 | 64.74645 | -18.26243 | 23119 ft | 324 kts | 61° |
| 2026-05-08 15:27 | 64.75352 | -18.21253 | 23119 ft | 325 kts | 62° |
| 2026-05-08 15:28 | 64.76065 | -18.16208 | 23090 ft | 326 kts | 62° |
| 2026-05-08 15:28 | 64.76778 | -18.11140 | 23063 ft | 327 kts | 62° |
| 2026-05-08 15:28 | 64.77477 | -18.06161 | 23049 ft | 327 kts | 62° |
| 2026-05-08 15:28 | 64.78186 | -18.01095 | 23026 ft | 327 kts | 62° |
| 2026-05-08 15:29 | 64.78893 | -17.96025 | 23017 ft | 327 kts | 62° |
| 2026-05-08 15:29 | 64.79592 | -17.91000 | 23026 ft | 326 kts | 62° |
| 2026-05-08 15:29 | 64.80295 | -17.85928 | 23039 ft | 326 kts | 62° |
| 2026-05-08 15:29 | 64.80996 | -17.80858 | 23055 ft | 325 kts | 62° |
| 2026-05-08 15:30 | 64.81692 | -17.75807 | 23053 ft | 325 kts | 63° |
| 2026-05-08 15:30 | 64.82377 | -17.70820 | 23056 ft | 325 kts | 62° |
| 2026-05-08 15:30 | 64.83069 | -17.65771 | 23057 ft | 325 kts | 62° |
| 2026-05-08 15:30 | 64.83757 | -17.60737 | 23061 ft | 325 kts | 63° |
| 2026-05-08 15:31 | 64.84446 | -17.55682 | 23057 ft | 325 kts | 63° |
| 2026-05-08 15:31 | 64.85140 | -17.50566 | 23052 ft | 326 kts | 63° |
| 2026-05-08 15:31 | 64.85822 | -17.45535 | 23049 ft | 326 kts | 63° |
| 2026-05-08 15:31 | 64.86510 | -17.40432 | 23045 ft | 326 kts | 63° |
| 2026-05-08 15:32 | 64.87196 | -17.35337 | 23038 ft | 326 kts | 63° |
| 2026-05-08 15:32 | 64.87873 | -17.30300 | 22812 ft | 325 kts | 64° |
| 2026-05-08 15:32 | 64.88541 | -17.25305 | 22495 ft | 318 kts | 64° |
| 2026-05-08 15:32 | 64.89196 | -17.20393 | 22159 ft | 312 kts | 64° |
| 2026-05-08 15:33 | 64.89838 | -17.15554 | 21805 ft | 307 kts | 65° |
| 2026-05-08 15:33 | 64.90468 | -17.10810 | 21470 ft | 303 kts | 65° |
| 2026-05-08 15:33 | 64.91084 | -17.06155 | 21141 ft | 299 kts | 65° |
| 2026-05-08 15:33 | 64.91695 | -17.01524 | 20804 ft | 295 kts | 65° |
| 2026-05-08 15:34 | 64.92297 | -16.96938 | 20476 ft | 291 kts | 65° |
| 2026-05-08 15:34 | 64.92889 | -16.92426 | 20145 ft | 288 kts | 65° |
| 2026-05-08 15:34 | 64.93478 | -16.87931 | 19821 ft | 285 kts | 65° |
| 2026-05-08 15:34 | 64.94054 | -16.83508 | 19502 ft | 283 kts | 66° |
| 2026-05-08 15:35 | 64.94630 | -16.79081 | 19175 ft | 280 kts | 66° |
| 2026-05-08 15:35 | 64.95196 | -16.74727 | 18856 ft | 278 kts | 66° |
| 2026-05-08 15:35 | 64.95753 | -16.70415 | 18547 ft | 276 kts | 66° |
| 2026-05-08 15:35 | 64.96307 | -16.66120 | 18238 ft | 273 kts | 66° |
| 2026-05-08 15:36 | 64.96854 | -16.61868 | 17944 ft | 270 kts | 66° |
| 2026-05-08 15:36 | 64.97216 | -16.59052 | 17745 ft | 269 kts | 66° |
| 2026-05-08 15:36 | 64.97935 | -16.53433 | 17353 ft | 266 kts | 66° |
| 2026-05-08 15:36 | 64.98464 | -16.49289 | 17071 ft | 263 kts | 66° |
| 2026-05-08 15:37 | 64.98981 | -16.45226 | 16781 ft | 261 kts | 66° |
| 2026-05-08 15:37 | 64.99503 | -16.41119 | 16494 ft | 259 kts | 66° |
| 2026-05-08 15:37 | 65.00016 | -16.37067 | 16212 ft | 257 kts | 66° |
| 2026-05-08 15:37 | 65.00524 | -16.33047 | 15925 ft | 255 kts | 67° |
| 2026-05-08 15:38 | 65.01025 | -16.29068 | 15648 ft | 252 kts | 68° |
| 2026-05-08 15:38 | 65.01524 | -16.25096 | 15372 ft | 250 kts | 68° |
| 2026-05-08 15:38 | 65.02015 | -16.21191 | 15092 ft | 248 kts | 68° |
| 2026-05-08 15:38 | 65.02502 | -16.17296 | 14810 ft | 247 kts | 68° |
| 2026-05-08 15:39 | 65.02984 | -16.13433 | 14533 ft | 248 kts | 68° |
| 2026-05-08 15:39 | 65.03487 | -16.09403 | 14256 ft | 262 kts | 68° |
| 2026-05-08 15:39 | 65.04021 | -16.05142 | 13953 ft | 275 kts | 68° |
| 2026-05-08 15:39 | 65.04571 | -16.00725 | 13630 ft | 286 kts | 69° |
| 2026-05-08 15:40 | 65.05131 | -15.96208 | 13300 ft | 294 kts | 69° |
| 2026-05-08 15:40 | 65.05714 | -15.91488 | 12956 ft | 300 kts | 69° |
| 2026-05-08 15:40 | 65.06298 | -15.86732 | 12608 ft | 305 kts | 69° |
| 2026-05-08 15:40 | 65.06893 | -15.81883 | 12253 ft | 308 kts | 69° |
| 2026-05-08 15:41 | 65.07489 | -15.77005 | 11898 ft | 310 kts | 69° |
| 2026-05-08 15:41 | 65.07936 | -15.72037 | 11520 ft | 316 kts | 80° |
| 2026-05-08 15:41 | 65.07894 | -15.66947 | 11179 ft | 301 kts | 88° |
| 2026-05-08 15:41 | 65.07780 | -15.62130 | 10845 ft | 287 kts | 88° |
| 2026-05-08 15:42 | 65.07666 | -15.57542 | 10533 ft | 274 kts | 87° |
| 2026-05-08 15:42 | 65.07556 | -15.53103 | 10228 ft | 263 kts | 87° |
| 2026-05-08 15:42 | 65.07452 | -15.48898 | 9945 ft | 253 kts | 87° |
| 2026-05-08 15:42 | 65.07351 | -15.44689 | 9665 ft | 255 kts | 86° |
| 2026-05-08 15:43 | 65.07252 | -15.40492 | 9384 ft | 258 kts | 87° |
| 2026-05-08 15:43 | 65.07153 | -15.36249 | 9090 ft | 260 kts | 87° |
| 2026-05-08 15:43 | 65.07052 | -15.31970 | 8796 ft | 262 kts | 88° |
| 2026-05-08 15:43 | 65.06949 | -15.27637 | 8500 ft | 263 kts | 88° |
| 2026-05-08 15:44 | 65.06845 | -15.23320 | 8202 ft | 264 kts | 88° |
| 2026-05-08 15:44 | 65.06741 | -15.19018 | 7913 ft | 265 kts | 88° |
| 2026-05-08 15:44 | 65.06634 | -15.14677 | 7621 ft | 265 kts | 88° |
| 2026-05-08 15:44 | 65.06526 | -15.10311 | 7331 ft | 265 kts | 88° |
| 2026-05-08 15:45 | 65.06418 | -15.05987 | 7034 ft | 256 kts | 87° |
| 2026-05-08 15:45 | 65.06313 | -15.01919 | 6680 ft | 246 kts | 87° |
| 2026-05-08 15:45 | 65.06211 | -14.97982 | 6336 ft | 236 kts | 86° |
| 2026-05-08 15:45 | 65.06110 | -14.94192 | 6036 ft | 224 kts | 86° |
| 2026-05-08 15:46 | 65.06013 | -14.90623 | 5765 ft | 210 kts | 86° |
| 2026-05-08 15:46 | 65.05919 | -14.87291 | 5513 ft | 194 kts | 85° |
| 2026-05-08 15:46 | 65.05833 | -14.84276 | 5281 ft | 175 kts | 84° |
| 2026-05-08 15:46 | 65.05786 | -14.81614 | 5052 ft | 149 kts | 74° |
| 2026-05-08 15:47 | 65.06016 | -14.79342 | 4675 ft | 144 kts | 54° |
| 2026-05-08 15:47 | 65.06409 | -14.77222 | 4590 ft | 137 kts | 59° |
| 2026-05-08 15:47 | 65.06724 | -14.75112 | 4576 ft | 138 kts | 60° |
| 2026-05-08 15:47 | 65.07134 | -14.73063 | 4594 ft | 132 kts | 34° |
| 2026-05-08 15:48 | 65.08372 | -14.69999 | 4908 ft | 146 kts | 64° |
| 2026-05-08 15:48 | 65.08652 | -14.67699 | 4970 ft | 147 kts | 62° |
| 2026-05-08 15:48 | 65.08971 | -14.65268 | 4687 ft | 166 kts | 63° |
| 2026-05-08 15:49 | 65.09354 | -14.62546 | 4230 ft | 181 kts | 60° |
| 2026-05-08 15:49 | 65.10087 | -14.60330 | 3785 ft | 165 kts | 26° |
| 2026-05-08 15:49 | 65.11062 | -14.59250 | 3562 ft | 147 kts | 14° |
| 2026-05-08 15:49 | 65.11952 | -14.58436 | 3365 ft | 126 kts | 15° |
| 2026-05-08 15:50 | 65.12754 | -14.57619 | 3180 ft | 129 kts | 18° |
| 2026-05-08 15:50 | 65.13602 | -14.56688 | 3195 ft | 141 kts | 19° |
| 2026-05-08 15:50 | 65.14565 | -14.55639 | 3141 ft | 166 kts | 19° |
| 2026-05-08 15:50 | 65.15686 | -14.54419 | 2956 ft | 191 kts | 20° |
| 2026-05-08 15:51 | 65.16969 | -14.53005 | 2654 ft | 206 kts | 20° |
| 2026-05-08 15:51 | 65.18200 | -14.51634 | 2235 ft | 188 kts | 20° |
| 2026-05-08 15:51 | 65.19318 | -14.50373 | 1922 ft | 169 kts | 20° |
| 2026-05-08 15:51 | 65.20319 | -14.49237 | 1666 ft | 150 kts | 20° |
| 2026-05-08 15:52 | 65.21214 | -14.48219 | 1481 ft | 143 kts | 20° |
| 2026-05-08 15:52 | 65.22118 | -14.47191 | 1313 ft | 142 kts | 20° |
| 2026-05-08 15:52 | 65.22967 | -14.46232 | 1105 ft | 131 kts | 20° |
| 2026-05-08 15:52 | 65.23750 | -14.45345 | 913 ft | 116 kts | 20° |
| 2026-05-08 15:53 | 65.24483 | -14.44496 | 955 ft | 126 kts | 21° |
| 2026-05-08 15:53 | 65.25370 | -14.43473 | 798 ft | 153 kts | 20° |
| 2026-05-08 15:53 | 65.26274 | -14.42475 | 569 ft | 133 kts | 21° |
| 2026-05-08 15:53 | 65.27083 | -14.41566 | 232 ft | 127 kts | 21° |
| 2026-05-08 15:54 | 65.27872 | -14.40669 | 69 ft | 114 kts | 20° |
| 2026-05-08 15:54 | 65.28422 | -14.40063 | 58 ft | 53 kts | 26° |
| 2026-05-08 15:54 | 65.28650 | -14.39803 | 57 ft | 28 kts | 22° |
| 2026-05-08 15:54 | 65.28729 | -14.39702 | 57 ft | 5 kts | 93° |
| 2026-05-08 15:55 | 65.28694 | -14.39724 | 57 ft | 11 kts | 214° |
| 2026-05-08 15:55 | 65.28268 | -14.40226 | 58 ft | 42 kts | 204° |
| 2026-05-08 15:55 | 65.28017 | -14.40507 | 59 ft | 37 kts | 205° |
| 2026-05-08 15:56 | 65.27801 | -14.40752 | 60 ft | 32 kts | 205° |
| 2026-05-08 15:56 | 65.27642 | -14.40894 | 60 ft | 17 kts | 166° |
| 2026-05-08 15:56 | 65.27594 | -14.40752 | 60 ft | 3 kts | 132° |
| 2026-05-08 15:56 | 65.27594 | -14.40751 | 60 ft | 0 kts | 133° |
| 2026-05-08 15:57 | 65.27585 | -14.40737 | 60 ft | 6 kts | 158° |
| 2026-05-08 15:57 | 65.27528 | -14.40790 | 60 ft | 10 kts | 207° |
| 2026-05-08 15:57 | 65.27485 | -14.40762 | 60 ft | 7 kts | 111° |
| 2026-05-08 15:58 | 65.27480 | -14.40735 | 60 ft | 0 kts | 115° |